sensor_id;sensor_type;location;lat;lon;timestamp;P1;durP1;ratioP1;P2;durP2;ratioP2
41875;SDS011;27555;50.808;4.402;2023-05-01T00:02:01;3.45;;;1.48;;
41875;SDS011;27555;50.808;4.402;2023-05-01T00:04:26;4.13;;;1.77;;
41875;SDS011;27555;50.808;4.402;2023-05-01T00:06:52;5.43;;;2.75;;
41875;SDS011;27555;50.808;4.402;2023-05-01T00:09:18;5.65;;;2.00;;
41875;SDS011;27555;50.808;4.402;2023-05-01T00:11:44;6.18;;;1.60;;
41875;SDS011;27555;50.808;4.402;2023-05-01T00:14:10;4.78;;;2.00;;
41875;SDS011;27555;50.808;4.402;2023-05-01T00:16:36;6.57;;;1.60;;
41875;SDS011;27555;50.808;4.402;2023-05-01T00:19:01;5.82;;;1.40;;
41875;SDS011;27555;50.808;4.402;2023-05-01T00:21:28;3.92;;;1.88;;
41875;SDS011;27555;50.808;4.402;2023-05-01T00:23:55;3.47;;;1.58;;
41875;SDS011;27555;50.808;4.402;2023-05-01T00:26:21;4.82;;;1.85;;
41875;SDS011;27555;50.808;4.402;2023-05-01T00:28:47;6.10;;;1.50;;
41875;SDS011;27555;50.808;4.402;2023-05-01T00:31:12;4.78;;;1.85;;
41875;SDS011;27555;50.808;4.402;2023-05-01T00:33:38;3.47;;;1.40;;
41875;SDS011;27555;50.808;4.402;2023-05-01T00:36:04;3.30;;;1.33;;
41875;SDS011;27555;50.808;4.402;2023-05-01T00:38:30;5.82;;;1.80;;
41875;SDS011;27555;50.808;4.402;2023-05-01T00:40:56;6.55;;;1.98;;
41875;SDS011;27555;50.808;4.402;2023-05-01T00:43:21;2.42;;;1.48;;
41875;SDS011;27555;50.808;4.402;2023-05-01T00:45:47;3.80;;;1.70;;
41875;SDS011;27555;50.808;4.402;2023-05-01T00:48:13;7.68;;;1.58;;
41875;SDS011;27555;50.808;4.402;2023-05-01T00:50:38;2.50;;;1.50;;
41875;SDS011;27555;50.808;4.402;2023-05-01T00:53:05;3.63;;;1.52;;
41875;SDS011;27555;50.808;4.402;2023-05-01T00:55:31;4.07;;;1.23;;
41875;SDS011;27555;50.808;4.402;2023-05-01T00:57:57;5.25;;;1.60;;
41875;SDS011;27555;50.808;4.402;2023-05-01T01:00:24;4.82;;;1.42;;
41875;SDS011;27555;50.808;4.402;2023-05-01T01:02:50;3.30;;;1.60;;
41875;SDS011;27555;50.808;4.402;2023-05-01T01:05:16;5.53;;;1.73;;
41875;SDS011;27555;50.808;4.402;2023-05-01T01:10:41;3.50;;;1.73;;
41875;SDS011;27555;50.808;4.402;2023-05-01T01:14:01;3.30;;;1.75;;
41875;SDS011;27555;50.808;4.402;2023-05-01T01:22:05;3.97;;;1.85;;
41875;SDS011;27555;50.808;4.402;2023-05-01T01:35:35;5.63;;;1.70;;
41875;SDS011;27555;50.808;4.402;2023-05-01T01:38:05;3.17;;;1.40;;
41875;SDS011;27555;50.808;4.402;2023-05-01T01:40:42;2.58;;;1.58;;
41875;SDS011;27555;50.808;4.402;2023-05-01T01:43:17;3.17;;;1.60;;
41875;SDS011;27555;50.808;4.402;2023-05-01T01:45:48;7.15;;;1.77;;
41875;SDS011;27555;50.808;4.402;2023-05-01T01:48:23;3.70;;;1.52;;
41875;SDS011;27555;50.808;4.402;2023-05-01T01:50:51;3.45;;;1.98;;
41875;SDS011;27555;50.808;4.402;2023-05-01T01:53:21;3.08;;;1.30;;
41875;SDS011;27555;50.808;4.402;2023-05-01T01:55:48;4.07;;;1.70;;
41875;SDS011;27555;50.808;4.402;2023-05-01T01:58:15;4.00;;;2.03;;
41875;SDS011;27555;50.808;4.402;2023-05-01T02:00:44;2.85;;;1.35;;
41875;SDS011;27555;50.808;4.402;2023-05-01T02:03:10;6.90;;;1.80;;
41875;SDS011;27555;50.808;4.402;2023-05-01T02:05:38;2.95;;;1.88;;
41875;SDS011;27555;50.808;4.402;2023-05-01T02:08:05;4.40;;;1.52;;
41875;SDS011;27555;50.808;4.402;2023-05-01T02:10:32;1.92;;;1.40;;
41875;SDS011;27555;50.808;4.402;2023-05-01T02:13:00;2.85;;;1.60;;
41875;SDS011;27555;50.808;4.402;2023-05-01T02:15:27;2.83;;;1.60;;
41875;SDS011;27555;50.808;4.402;2023-05-01T02:17:53;5.75;;;1.63;;
41875;SDS011;27555;50.808;4.402;2023-05-01T02:20:19;2.65;;;1.60;;
41875;SDS011;27555;50.808;4.402;2023-05-01T02:22:45;3.80;;;1.95;;
41875;SDS011;27555;50.808;4.402;2023-05-01T02:25:12;3.30;;;1.63;;
41875;SDS011;27555;50.808;4.402;2023-05-01T02:27:43;4.43;;;1.60;;
41875;SDS011;27555;50.808;4.402;2023-05-01T02:30:13;3.78;;;1.70;;
41875;SDS011;27555;50.808;4.402;2023-05-01T02:32:38;4.90;;;2.03;;
41875;SDS011;27555;50.808;4.402;2023-05-01T02:35:04;3.58;;;1.70;;
41875;SDS011;27555;50.808;4.402;2023-05-01T02:37:30;4.35;;;2.05;;
41875;SDS011;27555;50.808;4.402;2023-05-01T02:39:56;2.47;;;1.40;;
41875;SDS011;27555;50.808;4.402;2023-05-01T02:42:23;5.47;;;2.10;;
41875;SDS011;27555;50.808;4.402;2023-05-01T02:44:52;2.20;;;1.20;;
41875;SDS011;27555;50.808;4.402;2023-05-01T02:47:22;4.03;;;1.60;;
41875;SDS011;27555;50.808;4.402;2023-05-01T02:49:49;5.50;;;1.58;;
41875;SDS011;27555;50.808;4.402;2023-05-01T02:52:17;7.03;;;2.05;;
41875;SDS011;27555;50.808;4.402;2023-05-01T02:54:43;2.30;;;1.58;;
41875;SDS011;27555;50.808;4.402;2023-05-01T02:57:10;2.03;;;1.65;;
41875;SDS011;27555;50.808;4.402;2023-05-01T02:59:36;2.28;;;1.58;;
41875;SDS011;27555;50.808;4.402;2023-05-01T03:02:02;9.70;;;2.80;;
41875;SDS011;27555;50.808;4.402;2023-05-01T03:04:27;5.85;;;1.75;;
41875;SDS011;27555;50.808;4.402;2023-05-01T03:06:53;6.68;;;1.58;;
41875;SDS011;27555;50.808;4.402;2023-05-01T03:09:19;4.95;;;1.38;;
41875;SDS011;27555;50.808;4.402;2023-05-01T03:11:46;4.93;;;1.80;;
41875;SDS011;27555;50.808;4.402;2023-05-01T03:14:12;4.32;;;1.50;;
41875;SDS011;27555;50.808;4.402;2023-05-01T03:16:38;3.80;;;1.77;;
41875;SDS011;27555;50.808;4.402;2023-05-01T03:19:04;7.55;;;1.67;;
41875;SDS011;27555;50.808;4.402;2023-05-01T03:21:30;6.85;;;1.88;;
41875;SDS011;27555;50.808;4.402;2023-05-01T03:23:56;8.85;;;2.33;;
41875;SDS011;27555;50.808;4.402;2023-05-01T03:26:22;4.20;;;1.52;;
41875;SDS011;27555;50.808;4.402;2023-05-01T03:28:48;7.15;;;2.25;;
41875;SDS011;27555;50.808;4.402;2023-05-01T03:31:13;4.97;;;1.48;;
41875;SDS011;27555;50.808;4.402;2023-05-01T03:33:39;3.55;;;1.65;;
41875;SDS011;27555;50.808;4.402;2023-05-01T03:36:05;3.22;;;1.58;;
41875;SDS011;27555;50.808;4.402;2023-05-01T03:38:33;5.25;;;1.60;;
41875;SDS011;27555;50.808;4.402;2023-05-01T03:40:59;3.03;;;1.80;;
41875;SDS011;27555;50.808;4.402;2023-05-01T03:43:25;6.53;;;1.80;;
41875;SDS011;27555;50.808;4.402;2023-05-01T03:45:50;5.55;;;1.98;;
41875;SDS011;27555;50.808;4.402;2023-05-01T03:48:17;5.80;;;1.95;;
41875;SDS011;27555;50.808;4.402;2023-05-01T03:50:43;4.05;;;1.50;;
41875;SDS011;27555;50.808;4.402;2023-05-01T03:53:09;2.97;;;1.58;;
41875;SDS011;27555;50.808;4.402;2023-05-01T03:55:34;3.22;;;1.40;;
41875;SDS011;27555;50.808;4.402;2023-05-01T03:58:00;2.28;;;1.50;;
41875;SDS011;27555;50.808;4.402;2023-05-01T04:00:26;3.40;;;1.60;;
41875;SDS011;27555;50.808;4.402;2023-05-01T04:02:52;8.35;;;2.10;;
41875;SDS011;27555;50.808;4.402;2023-05-01T04:05:17;1.77;;;1.27;;
41875;SDS011;27555;50.808;4.402;2023-05-01T04:07:45;7.00;;;2.15;;
41875;SDS011;27555;50.808;4.402;2023-05-01T04:10:11;4.63;;;2.05;;
41875;SDS011;27555;50.808;4.402;2023-05-01T04:12:36;7.03;;;2.28;;
41875;SDS011;27555;50.808;4.402;2023-05-01T04:15:02;5.65;;;2.20;;
41875;SDS011;27555;50.808;4.402;2023-05-01T04:17:28;5.63;;;2.00;;
41875;SDS011;27555;50.808;4.402;2023-05-01T04:19:54;1.90;;;1.58;;
41875;SDS011;27555;50.808;4.402;2023-05-01T04:22:23;4.30;;;1.90;;
41875;SDS011;27555;50.808;4.402;2023-05-01T04:24:48;6.57;;;1.98;;
41875;SDS011;27555;50.808;4.402;2023-05-01T04:27:15;3.53;;;1.45;;
41875;SDS011;27555;50.808;4.402;2023-05-01T04:29:41;6.43;;;2.08;;
41875;SDS011;27555;50.808;4.402;2023-05-01T04:32:07;3.70;;;1.60;;
41875;SDS011;27555;50.808;4.402;2023-05-01T04:34:32;4.45;;;1.50;;
41875;SDS011;27555;50.808;4.402;2023-05-01T04:36:58;3.17;;;1.98;;
41875;SDS011;27555;50.808;4.402;2023-05-01T04:39:24;4.07;;;1.73;;
41875;SDS011;27555;50.808;4.402;2023-05-01T04:41:49;5.53;;;1.70;;
41875;SDS011;27555;50.808;4.402;2023-05-01T04:44:15;3.38;;;1.77;;
41875;SDS011;27555;50.808;4.402;2023-05-01T04:46:40;4.75;;;1.60;;
41875;SDS011;27555;50.808;4.402;2023-05-01T04:49:06;2.75;;;1.85;;
41875;SDS011;27555;50.808;4.402;2023-05-01T04:51:33;7.07;;;2.45;;
41875;SDS011;27555;50.808;4.402;2023-05-01T04:53:58;5.95;;;2.25;;
41875;SDS011;27555;50.808;4.402;2023-05-01T04:56:24;2.97;;;2.13;;
41875;SDS011;27555;50.808;4.402;2023-05-01T04:58:50;3.83;;;1.98;;
41875;SDS011;27555;50.808;4.402;2023-05-01T05:01:16;5.07;;;2.25;;
41875;SDS011;27555;50.808;4.402;2023-05-01T05:03:42;4.32;;;2.03;;
41875;SDS011;27555;50.808;4.402;2023-05-01T05:06:07;2.97;;;1.75;;
41875;SDS011;27555;50.808;4.402;2023-05-01T05:08:33;6.50;;;1.77;;
41875;SDS011;27555;50.808;4.402;2023-05-01T05:10:59;5.65;;;2.15;;
41875;SDS011;27555;50.808;4.402;2023-05-01T05:13:25;3.05;;;2.22;;
41875;SDS011;27555;50.808;4.402;2023-05-01T05:15:52;5.93;;;2.72;;
41875;SDS011;27555;50.808;4.402;2023-05-01T05:18:18;3.50;;;1.95;;
41875;SDS011;27555;50.808;4.402;2023-05-01T05:20:43;7.43;;;3.05;;
41875;SDS011;27555;50.808;4.402;2023-05-01T05:23:09;8.63;;;2.50;;
41875;SDS011;27555;50.808;4.402;2023-05-01T05:25:35;4.95;;;2.38;;
41875;SDS011;27555;50.808;4.402;2023-05-01T05:28:01;7.95;;;2.45;;
41875;SDS011;27555;50.808;4.402;2023-05-01T05:30:27;6.85;;;2.70;;
41875;SDS011;27555;50.808;4.402;2023-05-01T05:32:53;5.90;;;2.40;;
41875;SDS011;27555;50.808;4.402;2023-05-01T05:35:19;7.57;;;2.78;;
41875;SDS011;27555;50.808;4.402;2023-05-01T05:37:44;6.10;;;2.95;;
41875;SDS011;27555;50.808;4.402;2023-05-01T05:40:10;3.72;;;2.80;;
41875;SDS011;27555;50.808;4.402;2023-05-01T05:42:36;10.00;;;2.92;;
41875;SDS011;27555;50.808;4.402;2023-05-01T05:45:02;8.20;;;3.33;;
41875;SDS011;27555;50.808;4.402;2023-05-01T05:47:28;4.82;;;3.40;;
41875;SDS011;27555;50.808;4.402;2023-05-01T05:49:54;11.88;;;4.03;;
41875;SDS011;27555;50.808;4.402;2023-05-01T05:52:20;5.47;;;3.22;;
41875;SDS011;27555;50.808;4.402;2023-05-01T05:54:46;4.68;;;3.17;;
41875;SDS011;27555;50.808;4.402;2023-05-01T05:57:11;7.03;;;3.55;;
41875;SDS011;27555;50.808;4.402;2023-05-01T05:59:37;6.00;;;2.90;;
41875;SDS011;27555;50.808;4.402;2023-05-01T06:02:03;6.57;;;4.18;;
41875;SDS011;27555;50.808;4.402;2023-05-01T06:04:29;6.90;;;3.63;;
41875;SDS011;27555;50.808;4.402;2023-05-01T06:06:56;5.45;;;3.75;;
41875;SDS011;27555;50.808;4.402;2023-05-01T06:09:22;10.88;;;4.45;;
41875;SDS011;27555;50.808;4.402;2023-05-01T06:11:48;8.00;;;4.25;;
41875;SDS011;27555;50.808;4.402;2023-05-01T06:14:14;6.85;;;4.15;;
41875;SDS011;27555;50.808;4.402;2023-05-01T06:16:40;6.47;;;4.53;;
41875;SDS011;27555;50.808;4.402;2023-05-01T06:19:06;8.07;;;4.78;;
41875;SDS011;27555;50.808;4.402;2023-05-01T06:21:34;6.82;;;3.80;;
41875;SDS011;27555;50.808;4.402;2023-05-01T06:24:00;5.43;;;3.72;;
41875;SDS011;27555;50.808;4.402;2023-05-01T06:26:26;6.65;;;3.72;;
41875;SDS011;27555;50.808;4.402;2023-05-01T06:28:52;7.78;;;4.10;;
41875;SDS011;27555;50.808;4.402;2023-05-01T06:31:18;6.55;;;4.35;;
41875;SDS011;27555;50.808;4.402;2023-05-01T06:33:44;5.70;;;3.90;;
41875;SDS011;27555;50.808;4.402;2023-05-01T06:36:10;6.68;;;4.07;;
41875;SDS011;27555;50.808;4.402;2023-05-01T06:38:35;8.02;;;4.22;;
41875;SDS011;27555;50.808;4.402;2023-05-01T06:41:01;6.10;;;4.25;;
41875;SDS011;27555;50.808;4.402;2023-05-01T06:43:29;15.40;;;4.45;;
41875;SDS011;27555;50.808;4.402;2023-05-01T06:45:55;6.13;;;4.65;;
41875;SDS011;27555;50.808;4.402;2023-05-01T06:48:21;15.93;;;4.55;;
41875;SDS011;27555;50.808;4.402;2023-05-01T06:50:47;8.73;;;5.22;;
41875;SDS011;27555;50.808;4.402;2023-05-01T06:53:12;6.65;;;4.65;;
41875;SDS011;27555;50.808;4.402;2023-05-01T06:55:38;8.05;;;5.85;;
41875;SDS011;27555;50.808;4.402;2023-05-01T06:58:04;11.73;;;7.28;;
41875;SDS011;27555;50.808;4.402;2023-05-01T07:00:30;10.68;;;7.22;;
41875;SDS011;27555;50.808;4.402;2023-05-01T07:02:57;10.18;;;7.65;;
41875;SDS011;27555;50.808;4.402;2023-05-01T07:05:23;11.50;;;8.27;;
41875;SDS011;27555;50.808;4.402;2023-05-01T07:07:48;11.20;;;8.48;;
41875;SDS011;27555;50.808;4.402;2023-05-01T07:10:14;9.48;;;7.22;;
41875;SDS011;27555;50.808;4.402;2023-05-01T07:12:40;15.68;;;8.55;;
41875;SDS011;27555;50.808;4.402;2023-05-01T07:15:06;13.52;;;7.47;;
41875;SDS011;27555;50.808;4.402;2023-05-01T07:17:32;14.85;;;8.07;;
41875;SDS011;27555;50.808;4.402;2023-05-01T07:19:58;14.63;;;8.70;;
41875;SDS011;27555;50.808;4.402;2023-05-01T07:22:25;12.93;;;9.73;;
41875;SDS011;27555;50.808;4.402;2023-05-01T07:24:50;16.70;;;9.98;;
41875;SDS011;27555;50.808;4.402;2023-05-01T07:27:16;14.10;;;10.13;;
41875;SDS011;27555;50.808;4.402;2023-05-01T07:29:42;14.43;;;10.45;;
41875;SDS011;27555;50.808;4.402;2023-05-01T07:32:08;14.43;;;11.23;;
41875;SDS011;27555;50.808;4.402;2023-05-01T07:34:34;15.40;;;10.43;;
41875;SDS011;27555;50.808;4.402;2023-05-01T07:36:59;15.43;;;9.57;;
41875;SDS011;27555;50.808;4.402;2023-05-01T07:39:25;13.57;;;9.60;;
41875;SDS011;27555;50.808;4.402;2023-05-01T07:41:51;12.45;;;10.13;;
41875;SDS011;27555;50.808;4.402;2023-05-01T07:44:17;12.70;;;9.82;;
41875;SDS011;27555;50.808;4.402;2023-05-01T07:46:42;15.32;;;10.38;;
41875;SDS011;27555;50.808;4.402;2023-05-01T07:49:08;17.13;;;9.85;;
41875;SDS011;27555;50.808;4.402;2023-05-01T07:51:34;15.25;;;10.10;;
41875;SDS011;27555;50.808;4.402;2023-05-01T07:53:59;19.15;;;11.15;;
41875;SDS011;27555;50.808;4.402;2023-05-01T07:56:31;19.55;;;10.48;;
41875;SDS011;27555;50.808;4.402;2023-05-01T07:58:57;21.00;;;10.27;;
41875;SDS011;27555;50.808;4.402;2023-05-01T08:01:23;18.70;;;12.77;;
41875;SDS011;27555;50.808;4.402;2023-05-01T08:03:48;16.60;;;12.98;;
41875;SDS011;27555;50.808;4.402;2023-05-01T08:06:14;18.35;;;12.80;;
41875;SDS011;27555;50.808;4.402;2023-05-01T08:08:39;18.02;;;13.25;;
41875;SDS011;27555;50.808;4.402;2023-05-01T08:11:05;18.52;;;12.50;;
41875;SDS011;27555;50.808;4.402;2023-05-01T08:13:31;17.90;;;12.95;;
41875;SDS011;27555;50.808;4.402;2023-05-01T08:16:02;19.98;;;14.15;;
41875;SDS011;27555;50.808;4.402;2023-05-01T08:18:29;22.85;;;15.60;;
41875;SDS011;27555;50.808;4.402;2023-05-01T08:20:54;24.13;;;16.33;;
41875;SDS011;27555;50.808;4.402;2023-05-01T08:23:20;23.98;;;16.02;;
41875;SDS011;27555;50.808;4.402;2023-05-01T08:25:46;23.05;;;15.15;;
41875;SDS011;27555;50.808;4.402;2023-05-01T08:28:14;19.17;;;15.38;;
41875;SDS011;27555;50.808;4.402;2023-05-01T08:30:40;20.13;;;14.95;;
41875;SDS011;27555;50.808;4.402;2023-05-01T08:33:06;23.02;;;14.98;;
41875;SDS011;27555;50.808;4.402;2023-05-01T08:35:32;22.33;;;15.98;;
41875;SDS011;27555;50.808;4.402;2023-05-01T08:37:57;22.70;;;14.95;;
41875;SDS011;27555;50.808;4.402;2023-05-01T08:40:24;24.52;;;15.18;;
41875;SDS011;27555;50.808;4.402;2023-05-01T08:42:50;24.10;;;16.38;;
41875;SDS011;27555;50.808;4.402;2023-05-01T08:45:17;28.30;;;17.75;;
41875;SDS011;27555;50.808;4.402;2023-05-01T08:47:45;23.30;;;16.65;;
41875;SDS011;27555;50.808;4.402;2023-05-01T08:50:12;22.15;;;16.02;;
41875;SDS011;27555;50.808;4.402;2023-05-01T08:52:40;25.35;;;17.10;;
41875;SDS011;27555;50.808;4.402;2023-05-01T08:55:07;23.63;;;16.02;;
41875;SDS011;27555;50.808;4.402;2023-05-01T08:57:45;22.05;;;15.52;;
41875;SDS011;27555;50.808;4.402;2023-05-01T09:00:16;27.80;;;17.38;;
41875;SDS011;27555;50.808;4.402;2023-05-01T09:02:43;21.13;;;17.00;;
41875;SDS011;27555;50.808;4.402;2023-05-01T09:05:17;21.23;;;16.00;;
41875;SDS011;27555;50.808;4.402;2023-05-01T09:07:44;22.25;;;16.25;;
41875;SDS011;27555;50.808;4.402;2023-05-01T09:10:19;22.63;;;15.50;;
41875;SDS011;27555;50.808;4.402;2023-05-01T09:12:52;25.98;;;16.58;;
41875;SDS011;27555;50.808;4.402;2023-05-01T09:15:21;24.33;;;16.83;;
41875;SDS011;27555;50.808;4.402;2023-05-01T09:17:47;22.92;;;16.20;;
41875;SDS011;27555;50.808;4.402;2023-05-01T09:20:14;28.85;;;18.80;;
41875;SDS011;27555;50.808;4.402;2023-05-01T09:22:41;31.35;;;21.17;;
41875;SDS011;27555;50.808;4.402;2023-05-01T09:25:07;27.30;;;18.23;;
41875;SDS011;27555;50.808;4.402;2023-05-01T09:27:34;29.67;;;20.92;;
41875;SDS011;27555;50.808;4.402;2023-05-01T09:30:02;27.20;;;19.65;;
41875;SDS011;27555;50.808;4.402;2023-05-01T09:32:30;28.65;;;19.98;;
41875;SDS011;27555;50.808;4.402;2023-05-01T09:35:08;29.13;;;19.38;;
41875;SDS011;27555;50.808;4.402;2023-05-01T09:37:35;28.08;;;19.40;;
41875;SDS011;27555;50.808;4.402;2023-05-01T09:42:30;30.65;;;22.30;;
41875;SDS011;27555;50.808;4.402;2023-05-01T09:44:57;32.85;;;22.25;;
41875;SDS011;27555;50.808;4.402;2023-05-01T09:47:28;28.45;;;21.48;;
41875;SDS011;27555;50.808;4.402;2023-05-01T09:49:56;33.95;;;21.95;;
41875;SDS011;27555;50.808;4.402;2023-05-01T09:52:26;30.63;;;21.85;;
41875;SDS011;27555;50.808;4.402;2023-05-01T09:57:38;28.77;;;20.77;;
41875;SDS011;27555;50.808;4.402;2023-05-01T10:00:04;27.48;;;19.88;;
41875;SDS011;27555;50.808;4.402;2023-05-01T10:02:32;35.35;;;20.63;;
41875;SDS011;27555;50.808;4.402;2023-05-01T10:04:58;33.05;;;20.95;;
41875;SDS011;27555;50.808;4.402;2023-05-01T10:07:24;30.13;;;19.83;;
41875;SDS011;27555;50.808;4.402;2023-05-01T10:09:51;24.52;;;18.73;;
41875;SDS011;27555;50.808;4.402;2023-05-01T10:12:27;31.33;;;20.92;;
41875;SDS011;27555;50.808;4.402;2023-05-01T10:14:54;26.77;;;18.75;;
41875;SDS011;27555;50.808;4.402;2023-05-01T10:17:21;24.95;;;18.60;;
41875;SDS011;27555;50.808;4.402;2023-05-01T10:19:48;26.00;;;19.17;;
41875;SDS011;27555;50.808;4.402;2023-05-01T10:22:14;34.67;;;17.73;;
41875;SDS011;27555;50.808;4.402;2023-05-01T10:24:44;23.92;;;17.70;;
41875;SDS011;27555;50.808;4.402;2023-05-01T10:27:10;26.52;;;17.15;;
41875;SDS011;27555;50.808;4.402;2023-05-01T10:29:37;24.60;;;18.08;;
41875;SDS011;27555;50.808;4.402;2023-05-01T10:32:05;23.25;;;17.25;;
41875;SDS011;27555;50.808;4.402;2023-05-01T10:34:36;24.42;;;16.90;;
41875;SDS011;27555;50.808;4.402;2023-05-01T10:37:14;24.85;;;18.35;;
41875;SDS011;27555;50.808;4.402;2023-05-01T10:39:45;22.38;;;16.20;;
41875;SDS011;27555;50.808;4.402;2023-05-01T10:42:11;22.48;;;15.98;;
41875;SDS011;27555;50.808;4.402;2023-05-01T10:44:40;20.73;;;15.00;;
41875;SDS011;27555;50.808;4.402;2023-05-01T10:50:08;21.13;;;15.07;;
41875;SDS011;27555;50.808;4.402;2023-05-01T10:55:39;24.35;;;15.30;;
41875;SDS011;27555;50.808;4.402;2023-05-01T10:58:12;21.70;;;13.43;;
41875;SDS011;27555;50.808;4.402;2023-05-01T11:04:02;22.58;;;15.23;;
41875;SDS011;27555;50.808;4.402;2023-05-01T11:06:29;22.30;;;15.10;;
41875;SDS011;27555;50.808;4.402;2023-05-01T11:08:56;16.92;;;12.65;;
41875;SDS011;27555;50.808;4.402;2023-05-01T11:19:07;22.35;;;14.13;;
41875;SDS011;27555;50.808;4.402;2023-05-01T11:21:35;17.98;;;13.23;;
41875;SDS011;27555;50.808;4.402;2023-05-01T11:24:05;17.48;;;13.32;;
41875;SDS011;27555;50.808;4.402;2023-05-01T11:26:34;18.83;;;13.98;;
41875;SDS011;27555;50.808;4.402;2023-05-01T11:29:02;18.83;;;13.88;;
41875;SDS011;27555;50.808;4.402;2023-05-01T11:31:29;17.40;;;13.07;;
41875;SDS011;27555;50.808;4.402;2023-05-01T11:33:55;15.10;;;11.95;;
41875;SDS011;27555;50.808;4.402;2023-05-01T11:36:21;19.58;;;13.10;;
41875;SDS011;27555;50.808;4.402;2023-05-01T11:38:50;19.85;;;11.93;;
41875;SDS011;27555;50.808;4.402;2023-05-01T11:41:20;14.90;;;9.57;;
41875;SDS011;27555;50.808;4.402;2023-05-01T11:43:53;15.85;;;9.82;;
41875;SDS011;27555;50.808;4.402;2023-05-01T11:46:24;13.48;;;9.95;;
41875;SDS011;27555;50.808;4.402;2023-05-01T11:48:52;14.50;;;9.45;;
41875;SDS011;27555;50.808;4.402;2023-05-01T11:51:21;10.95;;;8.38;;
41875;SDS011;27555;50.808;4.402;2023-05-01T11:56:33;8.23;;;6.68;;
41875;SDS011;27555;50.808;4.402;2023-05-01T12:01:36;9.55;;;7.03;;
41875;SDS011;27555;50.808;4.402;2023-05-01T12:04:03;10.15;;;6.97;;
41875;SDS011;27555;50.808;4.402;2023-05-01T12:06:41;11.10;;;7.45;;
41875;SDS011;27555;50.808;4.402;2023-05-01T12:09:15;9.65;;;6.90;;
41875;SDS011;27555;50.808;4.402;2023-05-01T12:11:42;9.13;;;6.35;;
41875;SDS011;27555;50.808;4.402;2023-05-01T12:14:09;11.43;;;8.02;;
41875;SDS011;27555;50.808;4.402;2023-05-01T12:16:35;11.23;;;8.05;;
41875;SDS011;27555;50.808;4.402;2023-05-01T12:19:04;10.68;;;8.00;;
41875;SDS011;27555;50.808;4.402;2023-05-01T12:21:30;13.90;;;8.20;;
41875;SDS011;27555;50.808;4.402;2023-05-01T12:23:56;11.40;;;8.07;;
41875;SDS011;27555;50.808;4.402;2023-05-01T12:26:34;13.40;;;7.22;;
41875;SDS011;27555;50.808;4.402;2023-05-01T12:29:01;15.13;;;9.15;;
41875;SDS011;27555;50.808;4.402;2023-05-01T12:31:30;12.02;;;8.20;;
41875;SDS011;27555;50.808;4.402;2023-05-01T12:38:54;13.85;;;8.73;;
41875;SDS011;27555;50.808;4.402;2023-05-01T12:41:30;12.38;;;8.63;;
41875;SDS011;27555;50.808;4.402;2023-05-01T12:43:56;11.93;;;8.20;;
41875;SDS011;27555;50.808;4.402;2023-05-01T12:46:22;11.32;;;7.78;;
41875;SDS011;27555;50.808;4.402;2023-05-01T12:48:48;15.40;;;9.82;;
41875;SDS011;27555;50.808;4.402;2023-05-01T12:51:17;15.32;;;10.23;;
41875;SDS011;27555;50.808;4.402;2023-05-01T12:53:44;12.07;;;8.13;;
41875;SDS011;27555;50.808;4.402;2023-05-01T12:56:21;11.68;;;8.43;;
41875;SDS011;27555;50.808;4.402;2023-05-01T12:58:48;15.23;;;9.57;;
41875;SDS011;27555;50.808;4.402;2023-05-01T13:01:22;14.85;;;9.85;;
41875;SDS011;27555;50.808;4.402;2023-05-01T13:03:52;14.40;;;9.30;;
41875;SDS011;27555;50.808;4.402;2023-05-01T13:06:20;17.10;;;9.95;;
41875;SDS011;27555;50.808;4.402;2023-05-01T13:08:46;14.25;;;9.75;;
41875;SDS011;27555;50.808;4.402;2023-05-01T13:11:15;20.35;;;10.70;;
41875;SDS011;27555;50.808;4.402;2023-05-01T13:13:44;17.70;;;10.57;;
41875;SDS011;27555;50.808;4.402;2023-05-01T13:16:12;20.02;;;10.75;;
41875;SDS011;27555;50.808;4.402;2023-05-01T13:18:49;18.60;;;11.57;;
41875;SDS011;27555;50.808;4.402;2023-05-01T13:21:20;16.52;;;11.13;;
41875;SDS011;27555;50.808;4.402;2023-05-01T13:23:56;17.33;;;11.07;;
41875;SDS011;27555;50.808;4.402;2023-05-01T13:26:30;17.38;;;10.18;;
41875;SDS011;27555;50.808;4.402;2023-05-01T13:28:59;18.85;;;12.15;;
41875;SDS011;27555;50.808;4.402;2023-05-01T13:31:26;17.50;;;11.63;;
41875;SDS011;27555;50.808;4.402;2023-05-01T13:33:52;18.88;;;11.35;;
41875;SDS011;27555;50.808;4.402;2023-05-01T13:36:19;18.40;;;10.52;;
41875;SDS011;27555;50.808;4.402;2023-05-01T13:38:46;18.42;;;11.02;;
41875;SDS011;27555;50.808;4.402;2023-05-01T13:41:18;16.35;;;11.55;;
41875;SDS011;27555;50.808;4.402;2023-05-01T13:43:50;15.63;;;11.63;;
41875;SDS011;27555;50.808;4.402;2023-05-01T13:46:17;21.25;;;12.00;;
41875;SDS011;27555;50.808;4.402;2023-05-01T13:48:45;17.05;;;11.45;;
41875;SDS011;27555;50.808;4.402;2023-05-01T13:51:11;21.10;;;12.88;;
41875;SDS011;27555;50.808;4.402;2023-05-01T13:53:39;17.45;;;12.52;;
41875;SDS011;27555;50.808;4.402;2023-05-01T13:56:07;20.35;;;14.27;;
41875;SDS011;27555;50.808;4.402;2023-05-01T13:58:34;19.05;;;13.07;;
41875;SDS011;27555;50.808;4.402;2023-05-01T14:01:00;18.65;;;13.02;;
41875;SDS011;27555;50.808;4.402;2023-05-01T14:03:29;19.55;;;12.48;;
41875;SDS011;27555;50.808;4.402;2023-05-01T14:06:02;19.55;;;11.13;;
41875;SDS011;27555;50.808;4.402;2023-05-01T14:08:30;19.50;;;12.27;;
41875;SDS011;27555;50.808;4.402;2023-05-01T14:10:57;16.92;;;12.88;;
41875;SDS011;27555;50.808;4.402;2023-05-01T14:13:22;16.10;;;12.00;;
41875;SDS011;27555;50.808;4.402;2023-05-01T14:15:51;15.68;;;11.00;;
41875;SDS011;27555;50.808;4.402;2023-05-01T14:18:17;16.88;;;11.95;;
41875;SDS011;27555;50.808;4.402;2023-05-01T14:20:44;16.48;;;11.55;;
41875;SDS011;27555;50.808;4.402;2023-05-01T14:23:16;22.48;;;13.25;;
41875;SDS011;27555;50.808;4.402;2023-05-01T14:25:43;15.50;;;11.02;;
41875;SDS011;27555;50.808;4.402;2023-05-01T14:28:09;17.55;;;10.77;;
41875;SDS011;27555;50.808;4.402;2023-05-01T14:30:36;16.27;;;10.75;;
41875;SDS011;27555;50.808;4.402;2023-05-01T14:35:33;14.77;;;9.70;;
41875;SDS011;27555;50.808;4.402;2023-05-01T14:38:06;15.27;;;8.98;;
41875;SDS011;27555;50.808;4.402;2023-05-01T14:40:34;16.58;;;9.95;;
41875;SDS011;27555;50.808;4.402;2023-05-01T14:43:00;11.02;;;7.90;;
41875;SDS011;27555;50.808;4.402;2023-05-01T14:45:26;13.25;;;9.02;;
41875;SDS011;27555;50.808;4.402;2023-05-01T14:47:52;19.80;;;10.45;;
41875;SDS011;27555;50.808;4.402;2023-05-01T14:50:18;16.15;;;9.52;;
41875;SDS011;27555;50.808;4.402;2023-05-01T14:52:54;17.77;;;11.45;;
41875;SDS011;27555;50.808;4.402;2023-05-01T14:55:25;16.23;;;10.60;;
41875;SDS011;27555;50.808;4.402;2023-05-01T14:57:57;15.30;;;10.43;;
41875;SDS011;27555;50.808;4.402;2023-05-01T15:00:23;17.80;;;11.15;;
41875;SDS011;27555;50.808;4.402;2023-05-01T15:02:50;17.17;;;10.63;;
41875;SDS011;27555;50.808;4.402;2023-05-01T15:05:16;16.10;;;9.98;;
41875;SDS011;27555;50.808;4.402;2023-05-01T15:07:42;10.65;;;7.90;;
41875;SDS011;27555;50.808;4.402;2023-05-01T15:10:08;13.90;;;9.55;;
41875;SDS011;27555;50.808;4.402;2023-05-01T15:12:34;16.15;;;8.00;;
41875;SDS011;27555;50.808;4.402;2023-05-01T15:15:00;12.55;;;7.90;;
41875;SDS011;27555;50.808;4.402;2023-05-01T15:17:26;11.30;;;7.18;;
41875;SDS011;27555;50.808;4.402;2023-05-01T15:19:52;16.08;;;8.52;;
41875;SDS011;27555;50.808;4.402;2023-05-01T15:22:18;12.43;;;8.20;;
41875;SDS011;27555;50.808;4.402;2023-05-01T15:24:44;10.93;;;7.85;;
41875;SDS011;27555;50.808;4.402;2023-05-01T15:27:10;12.15;;;6.60;;
41875;SDS011;27555;50.808;4.402;2023-05-01T15:29:35;13.52;;;6.82;;
41875;SDS011;27555;50.808;4.402;2023-05-01T15:32:01;9.73;;;7.10;;